Нижневартовск

СКИДКИ НА СМАРТФОНЫ!

Карта отелей и гостиниц, располагающихся рядом с аэропортом Нижневартовск :

Нижневартовск Ханты-Мансийский автономный округ - Югра 60° 56' 59.3988" N, 76° 28' 58.1988" E
Код аэродрома ИКАО
USNN
Код аэродрома RU
УСНН
Координаты
N60.94983° E076.48283°
Превышение над уровнем моря
54
Основная полоса
03L/21R
Курс магнитный
026,7/206,7
Длина основной ВПП
3200
Ширина основной ВПП
60
Покрытие основной ВПП
Твёрдое (железобетон)
Освещение ВПП
Постоянное
Тип: 
Аэродром
Класс аэродрома: 
Международный
Принадлежность: 
ГА
Статус: 
Действующий
Сайт: 
nvavia.ru
E-mail аэродрома: 
office@nvavia.ru
Страна: 
Россия
Регион: 
Ханты-Мансийский автономный округ - Югра
Дополнительная информация: 
Оператор: ОАО «Нижневартовскавиа». Нкр.=(500)м, ДПРМ: 450-"JH/NZ", БПРМ: 915-"J/N".
Погода: 

Авиационная погода в Нижневартовске

Регион: 
Погода METAR: 
USNN 120000Z 30001MPS 9000 FEW001 00/00 Q1014 R03/15//65 NOSIG RMK QBB040 QFE756
Время наблюдения
2022-09-12T00:00:00Z
Температура C
0.0
Точка росы
0.0
Направление ветра
300
Скорость ветра (узлы)
2
Метео видимость
5.59
Облачность
FEW
Нижняя граница облачности (футы)
100
Явления погоды
Условия полета
VFR
Аэропорт подробнее: 
FEW – незначительная облачность;
Прогноз TAF: 

Скидки на навигаторы!

Найти трансфер

С помощью этой формы Вы можете найти трансфер из аэропорта Нижневартовск в город, аэропорт или вокзал:

Погода в аэропортах:

Авиационная погода в Витебске

Регион: 
Погода METAR: 
UMII 120000Z 10003MPS 4900 -DZ BR OVC006 08/08 Q1010 TEMPO 2000 RA BKN005
Время наблюдения
2022-09-12T00:00:00Z
Температура C
8.0
Точка росы
8.0
Направление ветра
100
Скорость ветра (узлы)
6
Метео видимость
3.04
Облачность
OVC
Нижняя граница облачности (футы)
600
Явления погоды
-DZ BR
Условия полета
IFR
OVC – сплошная облачность;
-DZ – слабая морось; BR – дымка (видимость от 1 до 9 км);

Авиационная погода в Бухте Провидения

Погода METAR: 
UHMD 120000Z 02008G14MPS 9999 VCSH BKN020CB OVC080 08/07 Q0998 RMK QBB600 MT OBSC QFE747/0997
Время наблюдения
2022-09-12T00:00:00Z
Температура C
8.0
Точка росы
7.0
Направление ветра
20
Скорость ветра (узлы)
16
Метео видимость
6.21
Облачность
BKN
OVC
Нижняя граница облачности (футы)
2000
8000
Явления погоды
VCSH
Условия полета
MVFR
Аэропорт подробнее: 
BKN – значительная (рассеянная, разорванная) облачность; OVC – сплошная облачность;

Авиационная погода в Минске

Регион: 
Погода METAR: 
UMMS 120000Z 06003G06MPS 010V110 9000 -SHRA BKN004 BKN012CB 10/10 Q1007 NOSIG RMK QBB120
Время наблюдения
2022-09-12T00:00:00Z
Температура C
10.0
Точка росы
10.0
Направление ветра
60
Скорость ветра (узлы)
6
Метео видимость
5.59
Облачность
BKN
BKN
Нижняя граница облачности (футы)
400
1200
Явления погоды
-SHRA
Условия полета
LIFR
Аэропорт подробнее: 
BKN – значительная (рассеянная, разорванная) облачность;
-SHRA - слабый ливневой дождь;

Авиационная погода в Сыктывкаре

Регион: 
Погода METAR: 
UUYY 120000Z 20002MPS 9000 0700SW FG FEW001 00/00 Q1020 R18/CLRD61 NOSIG RMK QBB050 QFE756/1009
Время наблюдения
2022-09-12T00:00:00Z
Температура C
0.0
Точка росы
0.0
Направление ветра
200
Скорость ветра (узлы)
4
Метео видимость
5.59
Облачность
FEW
Нижняя граница облачности (футы)
100
Явления погоды
FG
Условия полета
VFR
Аэропорт подробнее: 
FEW – незначительная облачность;
FG – туман (небо не видно, температура воздуха выше нуля или ноль);